Time;durP1;ratioP1;P1;durP2;ratioP2;P2;SDS_P1;SDS_P2;PMS_P1;PMS_P2;Temp;Humidity;BMP_temperature;BMP_pressure;BME280_temperature;BME280_humidity;BME280_pressure;Samples;Min_cycle;Max_cycle;Signal;HPM_P1;HPM_P2
2022/12/20 00:02:16;;;;;;;1.77;1.20;;;;;6.10;94446.00;;;;7398056;19;20165;-74
2022/12/20 00:04:44;;;;;;;1.77;1.10;;;;;6.20;94445.00;;;;7401667;19;20132;-74
2022/12/20 00:07:18;;;;;;;2.30;1.20;;;;;6.30;94443.00;;;;7399271;19;20522;-73
2022/12/20 00:09:45;;;;;;;1.63;1.20;;;;;6.50;94435.00;;;;7401719;19;20530;-73
2022/12/20 00:12:13;;;;;;;3.03;1.30;;;;;6.60;94435.00;;;;7401987;19;20139;-74
2022/12/20 00:14:47;;;;;;;2.30;1.20;;;;;6.90;94420.00;;;;7401775;19;20191;-74
2022/12/20 00:17:15;;;;;;;3.00;1.30;;;;;6.90;94411.00;;;;7401949;19;20191;-73
2022/12/20 00:19:43;;;;;;;2.40;1.30;;;;;6.60;94418.00;;;;7400878;19;20121;-75
2022/12/20 00:22:17;;;;;;;1.43;1.20;;;;;6.60;94409.00;;;;7401972;19;20140;-74
2022/12/20 00:24:52;;;;;;;1.50;1.30;;;;;6.40;94403.00;;;;7399327;19;20158;-74
2022/12/20 00:27:26;;;;;;;1.40;1.10;;;;;6.30;94407.00;;;;7399647;19;20150;-75
2022/12/20 00:29:53;;;;;;;1.97;1.00;;;;;6.90;94428.00;;;;7400529;19;20129;-74
2022/12/20 00:32:21;;;;;;;2.57;1.20;;;;;7.50;94411.00;;;;7402933;19;20121;-73
2022/12/20 00:34:55;;;;;;;1.50;1.20;;;;;7.70;94408.00;;;;7401247;19;20125;-74
2022/12/20 00:37:22;;;;;;;1.50;1.30;;;;;7.70;94387.00;;;;7401183;19;20125;-73
2022/12/20 00:39:50;;;;;;;1.97;1.10;;;;;7.70;94404.00;;;;7401410;19;20216;-75
2022/12/20 00:42:24;;;;;;;2.90;1.00;;;;;7.80;94399.00;;;;7401031;19;20173;-75
2022/12/20 00:44:51;;;;;;;3.40;1.20;;;;;7.70;94392.00;;;;7400293;19;20141;-74
2022/12/20 00:47:19;;;;;;;1.53;1.20;;;;;7.80;94400.00;;;;7399799;19;20129;-73
2022/12/20 00:49:53;;;;;;;1.30;1.10;;;;;7.60;94405.00;;;;7401132;19;20616;-75
2022/12/20 00:52:20;;;;;;;3.30;1.20;;;;;7.60;94407.00;;;;7400579;19;20125;-73
2022/12/20 00:54:48;;;;;;;1.10;1.00;;;;;7.70;94418.00;;;;7401129;19;20675;-74
2022/12/20 00:57:22;;;;;;;1.97;0.90;;;;;7.50;94420.00;;;;7400219;19;20674;-75
2022/12/20 00:59:50;;;;;;;0.90;0.90;;;;;7.40;94414.00;;;;7400004;19;20144;-74
2022/12/20 01:02:18;;;;;;;2.67;1.10;;;;;7.40;94409.00;;;;7399950;19;20148;-74
2022/12/20 01:04:53;;;;;;;3.97;1.30;;;;;7.20;94410.00;;;;7400802;19;20213;-73
2022/12/20 01:07:22;;;;;;;1.53;1.10;;;;;6.90;94403.00;;;;7398636;19;20212;-74
2022/12/20 01:09:50;;;;;;;1.60;1.17;;;;;6.70;94412.00;;;;7401515;19;20615;-74
2022/12/20 01:12:23;;;;;;;1.23;1.00;;;;;6.50;94411.00;;;;7399828;19;20148;-74
2022/12/20 01:14:51;;;;;;;1.87;1.13;;;;;6.70;94410.00;;;;7399697;19;20458;-74
2022/12/20 01:17:18;;;;;;;1.57;1.40;;;;;6.70;94412.00;;;;7398975;19;20141;-74
2022/12/20 01:19:52;;;;;;;2.33;1.30;;;;;6.50;94408.00;;;;7400318;19;20148;-74
2022/12/20 01:22:19;;;;;;;1.10;0.97;;;;;6.50;94395.00;;;;7399165;19;20161;-75
2022/12/20 01:24:47;;;;;;;1.47;0.87;;;;;6.60;94402.00;;;;7397097;19;20493;-74
2022/12/20 01:27:21;;;;;;;1.40;1.07;;;;;6.50;94415.00;;;;7398281;19;20657;-75
2022/12/20 01:29:49;;;;;;;1.13;1.03;;;;;6.70;94416.00;;;;7399258;19;20169;-74
2022/12/20 01:32:17;;;;;;;1.67;1.10;;;;;7.40;94417.00;;;;7400650;19;20145;-75
2022/12/20 01:34:53;;;;;;;1.33;1.20;;;;;7.60;94401.00;;;;7398773;19;20147;-75
2022/12/20 01:37:20;;;;;;;1.33;1.10;;;;;7.80;94415.00;;;;7399640;19;20204;-73
2022/12/20 01:39:48;;;;;;;1.30;1.20;;;;;8.10;94402.00;;;;7399056;19;20141;-74
2022/12/20 01:42:23;;;;;;;1.63;1.20;;;;;8.20;94393.00;;;;7400184;19;20141;-75
2022/12/20 01:44:54;;;;;;;2.13;1.20;;;;;8.60;94382.00;;;;7399356;19;20159;-74
2022/12/20 01:47:24;;;;;;;1.30;1.03;;;;;8.50;94389.00;;;;7399723;19;20216;-76
2022/12/20 01:50:01;;;;;;;2.80;1.30;;;;;8.60;94377.00;;;;7400143;19;20128;-75
2022/12/20 01:52:42;;;;;;;3.07;1.27;;;;;8.50;94378.00;;;;7400027;19;20145;-74
2022/12/20 01:55:27;;;;;;;3.10;1.57;;;;;8.70;94371.00;;;;7399222;19;20137;-75
2022/12/20 01:58:02;;;;;;;1.87;1.10;;;;;8.60;94373.00;;;;7398196;19;20152;-74
2022/12/20 02:00:36;;;;;;;3.00;1.10;;;;;8.50;94370.00;;;;7400135;19;20129;-74
2022/12/20 02:03:10;;;;;;;2.73;1.00;;;;;8.60;94374.00;;;;7398188;19;20144;-74
2022/12/20 02:05:46;;;;;;;1.10;1.00;;;;;8.50;94363.00;;;;7398816;19;20129;-74
2022/12/20 02:08:17;;;;;;;1.75;1.20;;;;;8.60;94372.00;;;;7398327;19;20167;-74
2022/12/20 02:11:15;;;;;;;1.33;1.00;;;;;8.20;94381.00;;;;7396034;19;20472;-75
2022/12/20 02:13:53;;;;;;;1.20;1.10;;;;;8.10;94373.00;;;;7398462;19;20124;-75
2022/12/20 02:16:32;;;;;;;1.37;0.80;;;;;8.10;94376.00;;;;7398928;19;20485;-74
2022/12/20 02:19:10;;;;;;;1.87;1.00;;;;;8.10;94374.00;;;;7391697;19;20128;-75
2022/12/20 02:22:02;;;;;;;1.53;1.07;;;;;7.80;94381.00;;;;7397410;19;20607;-75
2022/12/20 02:25:20;;;;;;;1.10;1.00;;;;;7.50;94372.00;;;;7396228;19;20719;-75
2022/12/20 02:28:25;;;;;;;2.43;1.30;;;;;7.10;94373.00;;;;7395264;19;20612;-75
2022/12/20 02:30:55;;;;;;;1.20;1.10;;;;;6.90;94372.00;;;;7395486;19;20151;-75
2022/12/20 02:33:30;;;;;;;0.90;0.90;;;;;6.70;94368.00;;;;7397761;19;20148;-75
2022/12/20 02:35:57;;;;;;;1.73;1.20;;;;;6.40;94373.00;;;;7397572;19;20148;-75
2022/12/20 02:38:30;;;;;;;1.83;1.23;;;;;6.30;94368.00;;;;7397858;19;20645;-75
2022/12/20 02:41:25;;;;;;;3.13;1.40;;;;;6.40;94364.00;;;;7399700;19;20131;-75
2022/12/20 02:46:53;;;;;;;3.67;2.07;;;;;6.20;94344.00;;;;7397097;19;20136;-74
2022/12/20 02:49:23;;;;;;;2.20;1.60;;;;;6.00;94342.00;;;;7399015;19;20184;-74
2022/12/20 02:51:53;;;;;;;1.97;1.30;;;;;6.50;94371.00;;;;7398394;19;20129;-75
2022/12/20 02:54:28;;;;;;;3.10;1.30;;;;;6.40;94353.00;;;;7398061;19;20145;-74
2022/12/20 02:57:04;;;;;;;3.60;2.10;;;;;6.50;94357.00;;;;7398643;19;20513;-74
2022/12/20 02:59:52;;;;;;;1.90;1.47;;;;;6.40;94370.00;;;;7398556;19;20180;-74
2022/12/20 03:02:19;;;;;;;2.67;1.70;;;;;6.40;94365.00;;;;7396198;19;20758;-74
2022/12/20 03:04:55;;;;;;;2.20;1.50;;;;;6.20;94355.00;;;;7396747;19;20149;-75
2022/12/20 03:07:23;;;;;;;2.07;1.20;;;;;6.20;94344.00;;;;7396618;19;20134;-75
2022/12/20 03:09:50;;;;;;;1.80;1.40;;;;;6.10;94344.00;;;;7398461;19;20572;-75
2022/12/20 03:12:24;;;;;;;3.30;1.30;;;;;6.00;94337.00;;;;7396167;19;20135;-74
2022/12/20 03:14:51;;;;;;;4.17;1.40;;;;;6.00;94351.00;;;;7398124;19;20143;-75
2022/12/20 03:17:19;;;;;;;1.77;1.40;;;;;6.10;94353.00;;;;7403913;19;20125;-74
2022/12/20 03:19:53;;;;;;;2.20;1.33;;;;;6.20;94354.00;;;;7405686;19;20619;-74
2022/12/20 03:22:22;;;;;;;2.03;1.60;;;;;6.40;94351.00;;;;7405119;19;20588;-74
2022/12/20 03:24:50;;;;;;;1.57;1.10;;;;;6.70;94348.00;;;;7401180;19;20153;-74
2022/12/20 03:27:24;;;;;;;1.33;1.23;;;;;6.70;94356.00;;;;7403933;19;20466;-74
2022/12/20 03:29:52;;;;;;;1.53;1.33;;;;;6.90;94362.00;;;;7403459;19;20148;-74
2022/12/20 03:32:20;;;;;;;1.50;1.37;;;;;6.90;94350.00;;;;7403192;19;20137;-75
2022/12/20 03:34:54;;;;;;;2.17;1.27;;;;;6.80;94346.00;;;;7404748;19;20518;-74
2022/12/20 03:37:21;;;;;;;3.83;1.40;;;;;6.90;94334.00;;;;7402750;19;20654;-75
2022/12/20 03:39:49;;;;;;;2.13;1.30;;;;;6.90;94335.00;;;;7402822;19;20129;-75
2022/12/20 03:42:23;;;;;;;2.80;1.30;;;;;6.60;94338.00;;;;7404151;19;20124;-75
2022/12/20 03:44:57;;;;;;;4.50;1.33;;;;;6.60;94331.00;;;;7404430;19;20466;-74
2022/12/20 03:47:31;;;;;;;1.70;1.40;;;;;6.60;94320.00;;;;7402057;19;20146;-74
2022/12/20 03:49:59;;;;;;;1.20;1.07;;;;;6.50;94324.00;;;;7403821;19;20144;-74
2022/12/20 03:52:26;;;;;;;5.43;1.43;;;;;6.50;94325.00;;;;7399461;19;20132;-74
2022/12/20 03:55:00;;;;;;;1.40;1.30;;;;;6.60;94320.00;;;;7402239;19;20220;-74
2022/12/20 03:57:28;;;;;;;2.17;1.43;;;;;6.60;94327.00;;;;7402306;19;20168;-75
2022/12/20 03:59:55;;;;;;;2.27;1.40;;;;;6.40;94324.00;;;;7403047;19;20275;-75
2022/12/20 04:02:29;;;;;;;2.53;1.20;;;;;6.50;94318.00;;;;7402926;19;20216;-75
2022/12/20 04:04:57;;;;;;;2.80;1.50;;;;;6.40;94327.00;;;;7402183;19;20141;-74
2022/12/20 04:07:24;;;;;;;2.97;1.00;;;;;6.70;94326.00;;;;7401009;19;20151;-74
2022/12/20 04:09:58;;;;;;;1.93;0.90;;;;;6.80;94332.00;;;;7401691;19;20128;-75
2022/12/20 04:12:25;;;;;;;3.87;1.20;;;;;6.80;94331.00;;;;7400762;19;20149;-75
2022/12/20 04:14:53;;;;;;;1.90;1.00;;;;;7.10;94334.00;;;;7402914;19;20650;-74
2022/12/20 04:17:27;;;;;;;2.00;1.10;;;;;7.30;94333.00;;;;7401064;19;20575;-74
2022/12/20 04:19:55;;;;;;;1.40;1.10;;;;;7.40;94317.00;;;;7401298;19;20635;-74
2022/12/20 04:22:22;;;;;;;1.70;1.10;;;;;7.30;94319.00;;;;7401392;19;20141;-74
2022/12/20 04:25:10;;;;;;;2.20;1.00;;;;;7.30;94311.00;;;;7400406;19;20159;-75
2022/12/20 04:27:45;;;;;;;1.20;1.10;;;;;7.40;94313.00;;;;7398347;19;20188;-75
2022/12/20 04:30:18;;;;;;;1.63;1.00;;;;;7.30;94302.00;;;;7402276;19;20146;-75
2022/12/20 04:32:46;;;;;;;1.60;0.90;;;;;7.20;94303.00;;;;7399031;19;20149;-75
2022/12/20 04:35:13;;;;;;;1.20;1.10;;;;;6.90;94305.00;;;;7403068;19;20133;-75
2022/12/20 04:37:47;;;;;;;1.30;1.03;;;;;6.90;94299.00;;;;7401972;19;20124;-75
2022/12/20 04:40:15;;;;;;;1.20;1.10;;;;;6.80;94304.00;;;;7400798;19;20121;-75
2022/12/20 04:42:42;;;;;;;1.53;0.93;;;;;6.60;94305.00;;;;7400629;19;20132;-75
2022/12/20 04:45:16;;;;;;;1.70;1.37;;;;;6.60;94294.00;;;;7401516;19;20125;-75
2022/12/20 04:47:44;;;;;;;1.23;0.90;;;;;6.60;94293.00;;;;7400993;19;20144;-75
2022/12/20 04:50:11;;;;;;;1.20;1.00;;;;;6.70;94295.00;;;;7400684;19;20147;-75
2022/12/20 04:55:48;;;;;;;1.73;1.03;;;;;6.60;94287.00;;;;7398307;19;20136;-74
2022/12/20 04:58:22;;;;;;;2.70;1.20;;;;;7.00;94296.00;;;;7400692;19;20140;-74
2022/12/20 05:00:51;;;;;;;1.63;1.10;;;;;7.10;94283.00;;;;7400076;19;20133;-74
2022/12/20 05:03:23;;;;;;;1.23;1.10;;;;;7.50;94272.00;;;;7399782;19;20121;-74
2022/12/20 05:05:57;;;;;;;1.47;1.10;;;;;7.40;94269.00;;;;7400359;19;20135;-74
2022/12/20 05:08:25;;;;;;;2.03;1.00;;;;;7.70;94270.00;;;;7399293;19;20631;-74
2022/12/20 05:10:52;;;;;;;1.40;0.90;;;;;7.90;94265.00;;;;7400179;19;20181;-74
2022/12/20 05:13:26;;;;;;;3.47;1.17;;;;;8.20;94264.00;;;;7399441;19;20162;-74
2022/12/20 05:15:56;;;;;;;1.57;1.00;;;;;8.30;94267.00;;;;7400956;19;20599;-74
2022/12/20 05:18:25;;;;;;;3.23;1.20;;;;;8.40;94261.00;;;;7401167;19;20128;-74
2022/12/20 05:26:52;;;;;;;1.23;1.13;;;;;8.60;94268.00;;;;7400180;19;20141;-74
2022/12/20 05:29:20;;;;;;;1.87;1.10;;;;;8.50;94254.00;;;;7398636;19;20534;-74
2022/12/20 05:31:53;;;;;;;2.40;1.20;;;;;8.60;94257.00;;;;7399785;19;20144;-74
2022/12/20 05:34:21;;;;;;;3.63;1.10;;;;;8.80;94263.00;;;;7399635;19;20148;-74
2022/12/20 05:36:48;;;;;;;4.07;1.10;;;;;8.90;94268.00;;;;7399628;19;20208;-74
2022/12/20 05:39:22;;;;;;;1.87;1.00;;;;;8.80;94258.00;;;;7400385;19;20135;-74
2022/12/20 05:41:50;;;;;;;1.97;1.23;;;;;8.80;94252.00;;;;7398667;19;20204;-74
2022/12/20 05:44:17;;;;;;;1.20;1.10;;;;;8.90;94248.00;;;;7399943;19;20845;-74
2022/12/20 05:46:52;;;;;;;4.17;1.30;;;;;8.90;94244.00;;;;7399485;19;20515;-75
2022/12/20 05:49:19;;;;;;;1.60;0.97;;;;;8.80;94245.00;;;;7398684;19;20124;-74
2022/12/20 05:51:47;;;;;;;2.93;1.03;;;;;8.90;94240.00;;;;7399062;19;20539;-74
2022/12/20 05:54:21;;;;;;;3.73;1.10;;;;;8.70;94251.00;;;;7399800;19;20129;-74
2022/12/20 05:56:49;;;;;;;1.00;0.77;;;;;8.50;94254.00;;;;7399616;19;20132;-74
2022/12/20 05:59:16;;;;;;;2.40;1.20;;;;;8.50;94258.00;;;;7397794;19;20545;-74
2022/12/20 06:01:51;;;;;;;1.63;1.00;;;;;8.60;94254.00;;;;7399419;19;20132;-74
2022/12/20 06:04:19;;;;;;;2.00;1.20;;;;;8.70;94247.00;;;;7400311;19;20139;-74
2022/12/20 06:06:53;;;;;;;1.47;1.07;;;;;8.70;94245.00;;;;7399929;19;20628;-74
2022/12/20 06:09:28;;;;;;;1.20;1.10;;;;;8.70;94234.00;;;;7396067;19;20639;-75
2022/12/20 06:11:56;;;;;;;2.60;1.20;;;;;8.60;94242.00;;;;7398054;19;20685;-74
2022/12/20 06:14:24;;;;;;;1.63;1.20;;;;;8.70;94247.00;;;;7397919;19;20129;-75
2022/12/20 06:16:58;;;;;;;3.97;1.40;;;;;8.50;94257.00;;;;7399934;19;20151;-74
2022/12/20 06:19:26;;;;;;;1.33;1.20;;;;;8.60;94261.00;;;;7397711;19;20129;-74
2022/12/20 06:22:09;;;;;;;2.28;1.20;;;;;8.40;94259.00;;;;7395614;19;20136;-75
2022/12/20 06:24:50;;;;;;;1.27;1.03;;;;;8.00;94262.00;;;;7392521;19;20205;-75
2022/12/20 06:27:20;;;;;;;2.57;1.10;;;;;7.80;94259.00;;;;7397576;19;20599;-75
2022/12/20 06:29:54;;;;;;;2.13;1.40;;;;;7.20;94257.00;;;;7397920;19;20619;-75
2022/12/20 06:32:22;;;;;;;3.57;1.30;;;;;7.20;94255.00;;;;7397754;19;20612;-75
2022/12/20 06:34:50;;;;;;;6.00;1.07;;;;;7.20;94254.00;;;;7399078;19;20129;-75
2022/12/20 06:37:24;;;;;;;2.28;1.25;;;;;7.30;94254.00;;;;7399339;19;20146;-75
2022/12/20 06:39:52;;;;;;;1.83;1.20;;;;;7.40;94256.00;;;;7399086;19;20124;-75
2022/12/20 06:42:19;;;;;;;2.03;1.33;;;;;7.40;94246.00;;;;7397668;19;20208;-75
2022/12/20 06:44:53;;;;;;;2.60;1.13;;;;;7.70;94248.00;;;;7399206;19;20149;-73
2022/12/20 06:47:21;;;;;;;2.03;1.40;;;;;7.70;94243.00;;;;7398455;19;20489;-73
2022/12/20 06:49:48;;;;;;;1.50;1.07;;;;;7.80;94255.00;;;;7394655;19;20129;-74
2022/12/20 06:52:23;;;;;;;2.93;1.43;;;;;7.50;94253.00;;;;7395364;19;20148;-74
2022/12/20 06:54:52;;;;;;;2.70;1.37;;;;;7.70;94246.00;;;;7389760;19;20141;-74
2022/12/20 06:57:19;;;;;;;1.23;1.10;;;;;7.50;94261.00;;;;7396714;19;20149;-74
2022/12/20 06:59:53;;;;;;;2.80;1.20;;;;;7.20;94253.00;;;;7396091;19;20125;-74
2022/12/20 07:02:21;;;;;;;2.03;1.40;;;;;7.30;94251.00;;;;7394973;19;20575;-75
2022/12/20 07:05:02;;;;;;;1.13;1.03;;;;;7.10;94239.00;;;;7397909;19;20215;-74
2022/12/20 07:07:36;;;;;;;1.83;1.30;;;;;6.80;94246.00;;;;7396052;19;20666;-74
2022/12/20 07:10:11;;;;;;;2.93;1.40;;;;;6.40;94247.00;;;;7396001;19;20528;-73
2022/12/20 07:12:46;;;;;;;2.90;1.53;;;;;6.20;94243.00;;;;7395178;19;20136;-73
2022/12/20 07:15:15;;;;;;;2.23;1.10;;;;;6.10;94248.00;;;;7393951;19;20607;-74
2022/12/20 07:17:44;;;;;;;2.20;1.37;;;;;6.10;94246.00;;;;7395367;19;20117;-74
2022/12/20 07:20:18;;;;;;;1.77;1.20;;;;;6.10;94248.00;;;;7395580;19;20453;-74
2022/12/20 07:22:48;;;;;;;2.63;1.27;;;;;6.40;94255.00;;;;7395365;19;20133;-74
2022/12/20 07:25:16;;;;;;;1.37;1.27;;;;;6.50;94241.00;;;;7393455;19;20173;-74
2022/12/20 07:27:51;;;;;;;2.33;1.43;;;;;6.60;94243.00;;;;7395704;19;20663;-74
2022/12/20 07:30:19;;;;;;;2.03;1.50;;;;;6.50;94250.00;;;;7395463;19;20608;-74
2022/12/20 07:32:47;;;;;;;2.93;1.40;;;;;6.40;94249.00;;;;7395737;19;20125;-74
2022/12/20 07:35:21;;;;;;;1.87;1.10;;;;;6.60;94233.00;;;;7394389;19;20486;-74
2022/12/20 07:37:49;;;;;;;2.57;1.30;;;;;6.70;94241.00;;;;7394814;19;20688;-74
2022/12/20 07:40:17;;;;;;;3.57;1.20;;;;;7.10;94235.00;;;;7381201;19;20133;-74
2022/12/20 07:42:51;;;;;;;1.60;1.20;;;;;7.50;94237.00;;;;7383233;19;20133;-74
2022/12/20 07:45:18;;;;;;;2.07;1.07;;;;;7.50;94240.00;;;;7382740;19;20217;-75
2022/12/20 07:47:46;;;;;;;1.73;1.03;;;;;7.40;94236.00;;;;7382170;19;20129;-74
2022/12/20 07:50:21;;;;;;;1.67;1.07;;;;;7.70;94230.00;;;;7379433;19;20149;-74
2022/12/20 07:52:49;;;;;;;1.40;1.03;;;;;7.90;94229.00;;;;7383093;19;20129;-74
2022/12/20 07:55:18;;;;;;;1.80;1.17;;;;;8.00;94227.00;;;;7381315;19;20545;-74
2022/12/20 07:57:57;;;;;;;2.10;1.10;;;;;7.70;94222.00;;;;7381963;19;20157;-74
2022/12/20 08:00:25;;;;;;;1.90;1.00;;;;;7.70;94224.00;;;;7382323;19;20639;-74
2022/12/20 08:03:07;;;;;;;1.10;1.00;;;;;7.70;94224.00;;;;7387628;19;20152;-74
2022/12/20 08:05:37;;;;;;;0.80;0.80;;;;;7.50;94216.00;;;;7391700;19;20132;-74
2022/12/20 08:08:12;;;;;;;2.23;1.10;;;;;7.60;94218.00;;;;7388537;19;20659;-74
2022/12/20 08:10:40;;;;;;;1.57;1.00;;;;;7.40;94226.00;;;;7387989;19;20137;-74
2022/12/20 08:13:08;;;;;;;2.57;1.20;;;;;7.40;94223.00;;;;7387746;19;20155;-73
2022/12/20 08:15:42;;;;;;;1.17;0.97;;;;;7.90;94221.00;;;;7387953;19;20160;-74
2022/12/20 08:18:10;;;;;;;2.13;1.00;;;;;8.40;94220.00;;;;7388270;19;20159;-74
2022/12/20 08:20:38;;;;;;;1.17;0.97;;;;;8.80;94218.00;;;;7387418;19;20125;-74
2022/12/20 08:23:15;;;;;;;4.20;0.97;;;;;8.60;94221.00;;;;7387399;19;20950;-74
2022/12/20 08:25:50;;;;;;;1.40;0.77;;;;;8.90;94210.00;;;;7384843;19;20651;-74
2022/12/20 08:28:24;;;;;;;2.13;0.90;;;;;9.30;94207.00;;;;7386659;19;20140;-74
2022/12/20 08:30:52;;;;;;;1.97;0.80;;;;;9.60;94201.00;;;;7387407;19;20178;-74
2022/12/20 08:33:20;;;;;;;1.23;0.90;;;;;9.70;94198.00;;;;7387663;19;20526;-75
2022/12/20 08:36:01;;;;;;;2.00;0.90;;;;;9.80;94195.00;;;;7388643;19;20809;-73
2022/12/20 08:38:32;;;;;;;2.28;1.00;;;;;9.80;94193.00;;;;7387675;19;20543;-73
2022/12/20 08:41:09;;;;;;;1.00;0.80;;;;;9.40;94201.00;;;;7389064;19;20152;-74
2022/12/20 08:43:38;;;;;;;2.05;0.80;;;;;9.30;94192.00;;;;7387378;19;20152;-74
2022/12/20 08:46:06;;;;;;;1.92;1.10;;;;;9.60;94192.00;;;;7389082;19;20125;-74
2022/12/20 08:48:41;;;;;;;3.28;1.17;;;;;9.70;94196.00;;;;7389812;19;20136;-73
2022/12/20 08:51:10;;;;;;;2.22;0.75;;;;;9.70;94188.00;;;;7389016;19;20148;-74
2022/12/20 08:53:38;;;;;;;1.95;0.75;;;;;9.70;94193.00;;;;7388043;19;20152;-74
2022/12/20 08:56:15;;;;;;;1.10;1.00;;;;;9.70;94192.00;;;;7389756;19;20156;-74
2022/12/20 08:58:43;;;;;;;1.85;1.00;;;;;9.90;94188.00;;;;7389480;19;20180;-73
2022/12/20 09:01:16;;;;;;;1.13;1.00;;;;;9.70;94187.00;;;;7388829;19;20129;-74
2022/12/20 09:03:51;;;;;;;2.47;0.98;;;;;10.10;94193.00;;;;7386965;19;20688;-73
2022/12/20 09:06:21;;;;;;;1.65;1.10;;;;;10.30;94179.00;;;;7387683;19;20171;-73
2022/12/20 09:08:49;;;;;;;1.67;1.02;;;;;10.30;94191.00;;;;7388555;19;20149;-73
2022/12/20 09:11:25;;;;;;;1.10;1.00;;;;;10.40;94189.00;;;;7388680;19;20132;-73
2022/12/20 09:13:56;;;;;;;1.20;1.00;;;;;10.40;94184.00;;;;7387749;19;20143;-74
2022/12/20 09:16:31;;;;;;;2.45;1.50;;;;;10.40;94191.00;;;;7388009;19;20160;-74
2022/12/20 09:19:00;;;;;;;2.42;1.20;;;;;10.30;94182.00;;;;7390196;19;20144;-74
2022/12/20 09:21:33;;;;;;;4.45;1.30;;;;;10.40;94172.00;;;;7387223;19;20132;-73
2022/12/20 09:24:21;;;;;;;1.73;1.27;;;;;10.50;94181.00;;;;7388920;19;20829;-73
2022/12/20 09:26:55;;;;;;;1.35;1.10;;;;;10.50;94184.00;;;;7387299;19;20153;-74
2022/12/20 09:29:29;;;;;;;1.70;1.00;;;;;10.60;94186.00;;;;7385039;19;20178;-74
2022/12/20 09:32:02;;;;;;;2.03;1.42;;;;;10.50;94186.00;;;;7386512;19;20177;-73
2022/12/20 09:34:36;;;;;;;2.38;1.10;;;;;10.50;94193.00;;;;7389173;19;20139;-73
2022/12/20 09:37:04;;;;;;;2.53;1.10;;;;;10.50;94186.00;;;;7389171;19;20147;-72
2022/12/20 09:39:32;;;;;;;2.03;1.20;;;;;10.60;94184.00;;;;7387251;19;20192;-74
2022/12/20 09:42:08;;;;;;;1.48;1.20;;;;;10.60;94177.00;;;;7387941;19;20476;-74
2022/12/20 09:44:39;;;;;;;2.92;1.13;;;;;10.70;94166.00;;;;7386694;19;20176;-75
2022/12/20 09:47:19;;;;;;;1.20;1.08;;;;;10.50;94171.00;;;;7386956;19;20514;-74
2022/12/20 09:49:52;;;;;;;3.00;1.63;;;;;10.50;94172.00;;;;7388088;19;20473;-74
2022/12/20 09:52:34;;;;;;;2.20;1.10;;;;;10.60;94168.00;;;;7387388;19;20137;-73
2022/12/20 09:55:21;;;;;;;2.75;1.00;;;;;10.60;94173.00;;;;7387920;19;20132;-72
2022/12/20 09:58:20;;;;;;;1.67;1.20;;;;;10.80;94170.00;;;;7385586;19;20609;-73
2022/12/20 10:00:49;;;;;;;1.58;1.17;;;;;10.90;94167.00;;;;7384739;19;20600;-74
2022/12/20 10:03:35;;;;;;;2.15;0.88;;;;;10.90;94166.00;;;;7387496;19;20180;-75
2022/12/20 10:06:28;;;;;;;1.92;1.20;;;;;11.00;94162.00;;;;7386947;19;20132;-74
2022/12/20 10:09:12;;;;;;;1.00;0.90;;;;;11.00;94168.00;;;;7383328;19;20654;-74
2022/12/20 10:11:56;;;;;;;1.25;0.90;;;;;10.80;94168.00;;;;7385586;19;20144;-74
2022/12/20 10:14:36;;;;;;;0.77;0.65;;;;;11.10;94159.00;;;;7387739;19;20136;-74
2022/12/20 10:17:10;;;;;;;1.20;0.98;;;;;11.10;94146.00;;;;7386160;19;20615;-73
2022/12/20 10:20:12;;;;;;;1.13;1.00;;;;;10.90;94155.00;;;;7384783;19;20893;-74
2022/12/20 10:23:12;;;;;;;1.50;1.00;;;;;11.10;94158.00;;;;7384677;19;20136;-73
2022/12/20 10:25:55;;;;;;;1.75;1.08;;;;;11.10;94163.00;;;;7382814;19;20167;-73
2022/12/20 10:28:33;;;;;;;2.50;1.00;;;;;10.90;94161.00;;;;7386254;19;20152;-73
2022/12/20 10:31:14;;;;;;;1.50;1.13;;;;;10.90;94156.00;;;;7384522;19;20172;-74
2022/12/20 10:33:42;;;;;;;1.90;1.27;;;;;10.80;94150.00;;;;7385858;19;20152;-75
2022/12/20 10:36:34;;;;;;;1.52;1.10;;;;;10.80;94150.00;;;;7383433;19;20499;-74
2022/12/20 10:39:09;;;;;;;1.92;1.10;;;;;10.80;94139.00;;;;7388170;19;20129;-73
2022/12/20 10:41:42;;;;;;;2.90;1.10;;;;;11.00;94139.00;;;;7388168;19;20188;-74
2022/12/20 10:44:19;;;;;;;2.33;1.20;;;;;11.20;94132.00;;;;7388890;19;20121;-73
2022/12/20 10:46:58;;;;;;;1.92;1.20;;;;;11.10;94138.00;;;;7386501;19;20136;-74
2022/12/20 10:49:29;;;;;;;2.83;1.10;;;;;11.10;94127.00;;;;7386800;19;20144;-73
2022/12/20 10:52:12;;;;;;;3.20;1.17;;;;;11.00;94123.00;;;;7385177;19;20153;-74
2022/12/20 10:54:47;;;;;;;2.60;1.05;;;;;11.10;94110.00;;;;7385126;19;20740;-74
2022/12/20 10:57:28;;;;;;;1.13;0.98;;;;;11.00;94109.00;;;;7383304;19;20518;-73
2022/12/20 11:00:00;;;;;;;1.70;0.98;;;;;10.90;94110.00;;;;7381232;19;20183;-74
2022/12/20 11:02:41;;;;;;;2.78;1.10;;;;;11.20;94100.00;;;;7382912;19;20156;-73
2022/12/20 11:05:10;;;;;;;1.30;1.00;;;;;11.00;94092.00;;;;7384808;19;20132;-74
2022/12/20 11:08:16;;;;;;;3.00;1.17;;;;;11.10;94094.00;;;;7381418;19;20191;-73
2022/12/20 11:11:20;;;;;;;1.25;1.05;;;;;11.10;94105.00;;;;7379543;19;20182;-74
2022/12/20 11:14:13;;;;;;;4.05;0.88;;;;;10.90;94099.00;;;;7382984;19;20496;-74
2022/12/20 11:16:51;;;;;;;1.40;0.90;;;;;10.80;94093.00;;;;7383317;19;20845;-74
2022/12/20 11:19:46;;;;;;;1.17;1.08;;;;;10.60;94085.00;;;;7383225;19;20547;-74
2022/12/20 11:22:45;;;;;;;1.10;1.00;;;;;10.80;94077.00;;;;7382452;19;20129;-74
2022/12/20 11:25:32;;;;;;;1.55;0.82;;;;;10.70;94075.00;;;;7380736;19;20845;-74
2022/12/20 11:28:31;;;;;;;1.75;1.00;;;;;10.90;94071.00;;;;7385937;19;20531;-74
2022/12/20 11:31:22;;;;;;;4.90;1.42;;;;;10.90;94060.00;;;;7382098;19;20548;-74
2022/12/20 11:34:18;;;;;;;3.03;1.65;;;;;10.80;94054.00;;;;7385830;19;20615;-74
2022/12/20 11:37:19;;;;;;;5.82;1.50;;;;;10.80;94052.00;;;;7386807;19;20132;-74
2022/12/20 11:39:59;;;;;;;2.35;1.40;;;;;11.10;94049.00;;;;7390572;19;20137;-74
2022/12/20 11:43:04;;;;;;;1.83;1.30;;;;;11.20;94053.00;;;;7391368;19;20129;-74
2022/12/20 11:45:59;;;;;;;3.15;1.60;;;;;11.10;94056.00;;;;7389777;19;21015;-74
2022/12/20 11:49:02;;;;;;;2.05;1.33;;;;;11.20;94069.00;;;;7390654;19;20623;-74
2022/12/20 11:51:45;;;;;;;2.72;1.00;;;;;11.40;94058.00;;;;7387216;19;20171;-74
2022/12/20 11:54:29;;;;;;;3.22;1.27;;;;;11.30;94061.00;;;;7390322;19;21025;-74
2022/12/20 11:57:06;;;;;;;1.95;1.30;;;;;11.50;94051.00;;;;7389541;19;20144;-74
2022/12/20 11:59:44;;;;;;;2.53;1.25;;;;;11.50;94035.00;;;;7393332;19;20464;-74
2022/12/20 12:02:17;;;;;;;1.30;0.98;;;;;11.50;94024.00;;;;7388993;19;20156;-73
2022/12/20 12:04:59;;;;;;;1.95;1.40;;;;;11.70;94032.00;;;;7391448;19;20129;-73
2022/12/20 12:07:31;;;;;;;2.28;1.05;;;;;11.60;94027.00;;;;7389406;19;20188;-74
2022/12/20 12:10:25;;;;;;;1.45;1.00;;;;;11.50;94019.00;;;;7385652;19;20133;-74
2022/12/20 12:13:14;;;;;;;2.45;0.93;;;;;11.90;94018.00;;;;7388336;19;20141;-74
2022/12/20 12:16:35;;;;;;;0.93;0.80;;;;;12.20;94019.00;;;;7391186;19;20481;-74
2022/12/20 12:19:07;;;;;;;2.35;0.98;;;;;12.50;94020.00;;;;7388946;19;20605;-74
2022/12/20 12:21:51;;;;;;;2.25;0.93;;;;;12.80;94016.00;;;;7389153;19;20135;-74
2022/12/20 12:24:43;;;;;;;1.38;0.77;;;;;12.30;94026.00;;;;7387762;19;20175;-74
2022/12/20 12:27:26;;;;;;;2.33;1.05;;;;;12.50;94019.00;;;;7388437;19;20151;-75
2022/12/20 12:29:57;;;;;;;3.42;0.90;;;;;12.20;94017.00;;;;7389563;19;20607;-75
2022/12/20 12:32:40;;;;;;;1.58;1.02;;;;;12.50;94023.00;;;;7389046;19;20132;-74
2022/12/20 12:35:36;;;;;;;1.25;1.10;;;;;12.50;94001.00;;;;7387867;19;20148;-74
2022/12/20 12:38:32;;;;;;;4.30;1.10;;;;;12.40;93981.00;;;;7388328;19;20141;-74
2022/12/20 12:41:08;;;;;;;1.52;1.00;;;;;12.50;93991.00;;;;7388524;19;20623;-75
2022/12/20 12:43:54;;;;;;;1.50;0.98;;;;;12.40;93986.00;;;;7389139;19;20137;-75
2022/12/20 12:46:28;;;;;;;1.52;0.70;;;;;12.10;93969.00;;;;7389893;19;20256;-74
2022/12/20 12:49:17;;;;;;;1.52;1.00;;;;;12.10;93975.00;;;;7385063;19;20144;-75
2022/12/20 12:51:51;;;;;;;1.98;1.35;;;;;11.90;93977.00;;;;7387566;19;20172;-75
2022/12/20 12:54:28;;;;;;;3.28;1.30;;;;;11.60;93981.00;;;;7389998;19;21157;-74
2022/12/20 12:57:21;;;;;;;2.92;1.23;;;;;11.50;93996.00;;;;7389672;19;20129;-74
2022/12/20 12:59:55;;;;;;;1.30;1.20;;;;;11.50;93994.00;;;;7388972;19;20496;-74
2022/12/20 13:02:26;;;;;;;4.30;1.60;;;;;11.20;94000.00;;;;7387102;19;20481;-74
2022/12/20 13:05:20;;;;;;;4.63;1.90;;;;;10.90;94002.00;;;;7387232;19;20180;-74
2022/12/20 13:07:55;;;;;;;3.17;1.83;;;;;10.60;93990.00;;;;7387125;19;20157;-76
2022/12/20 13:10:28;;;;;;;5.75;2.00;;;;;10.50;93999.00;;;;7386415;19;20157;-74
2022/12/20 13:13:20;;;;;;;2.88;2.20;;;;;10.10;94015.00;;;;7387004;19;20823;-74
2022/12/20 13:15:50;;;;;;;4.18;2.33;;;;;10.10;94012.00;;;;7388068;19;20169;-74